sensor_id;sensor_type;location;lat;lon;timestamp;P1;durP1;ratioP1;P2;durP2;ratioP2
8462;SDS011;4268;52.506;13.462;2024-03-23T00:53:43;7.77;;;4.77;;
8462;SDS011;4268;52.506;13.462;2024-03-23T00:56:09;9.07;;;4.97;;
8462;SDS011;4268;52.506;13.462;2024-03-23T00:58:35;7.23;;;4.33;;
8462;SDS011;4268;52.506;13.462;2024-03-23T01:01:00;8.47;;;4.37;;
8462;SDS011;4268;52.506;13.462;2024-03-23T01:03:28;7.03;;;4.20;;
8462;SDS011;4268;52.506;13.462;2024-03-23T01:05:54;7.93;;;4.80;;
8462;SDS011;4268;52.506;13.462;2024-03-23T01:08:19;11.83;;;5.13;;
8462;SDS011;4268;52.506;13.462;2024-03-23T01:10:58;8.43;;;4.40;;
8462;SDS011;4268;52.506;13.462;2024-03-23T01:13:27;7.40;;;4.10;;
8462;SDS011;4268;52.506;13.462;2024-03-23T01:15:54;9.20;;;4.47;;
8462;SDS011;4268;52.506;13.462;2024-03-23T01:18:21;13.70;;;4.80;;
8462;SDS011;4268;52.506;13.462;2024-03-23T01:20:47;8.77;;;4.43;;
8462;SDS011;4268;52.506;13.462;2024-03-23T01:23:13;10.53;;;4.70;;
8462;SDS011;4268;52.506;13.462;2024-03-23T01:25:39;10.07;;;4.63;;
8462;SDS011;4268;52.506;13.462;2024-03-23T01:28:05;8.37;;;4.60;;
8462;SDS011;4268;52.506;13.462;2024-03-23T01:30:34;10.20;;;4.60;;
8462;SDS011;4268;52.506;13.462;2024-03-23T01:33:00;10.07;;;5.13;;
8462;SDS011;4268;52.506;13.462;2024-03-23T01:35:27;12.10;;;5.00;;
8462;SDS011;4268;52.506;13.462;2024-03-23T01:37:53;8.77;;;4.80;;
8462;SDS011;4268;52.506;13.462;2024-03-23T01:40:19;12.93;;;5.03;;
8462;SDS011;4268;52.506;13.462;2024-03-23T01:42:56;12.50;;;4.63;;
8462;SDS011;4268;52.506;13.462;2024-03-23T01:45:32;9.03;;;4.33;;
8462;SDS011;4268;52.506;13.462;2024-03-23T01:47:58;9.70;;;4.60;;
8462;SDS011;4268;52.506;13.462;2024-03-23T01:50:24;7.33;;;4.67;;
8462;SDS011;4268;52.506;13.462;2024-03-23T01:52:50;12.60;;;5.30;;
8462;SDS011;4268;52.506;13.462;2024-03-23T01:55:16;8.83;;;4.80;;
8462;SDS011;4268;52.506;13.462;2024-03-23T01:57:42;12.23;;;5.10;;
8462;SDS011;4268;52.506;13.462;2024-03-23T02:00:07;11.73;;;4.83;;
8462;SDS011;4268;52.506;13.462;2024-03-23T02:02:35;9.97;;;4.67;;
8462;SDS011;4268;52.506;13.462;2024-03-23T02:05:00;13.67;;;5.07;;
8462;SDS011;4268;52.506;13.462;2024-03-23T02:07:26;9.17;;;4.80;;
8462;SDS011;4268;52.506;13.462;2024-03-23T02:09:52;9.23;;;4.80;;
8462;SDS011;4268;52.506;13.462;2024-03-23T02:12:18;11.50;;;4.97;;
8462;SDS011;4268;52.506;13.462;2024-03-23T02:14:44;10.03;;;4.90;;
8462;SDS011;4268;52.506;13.462;2024-03-23T02:17:09;11.27;;;5.60;;
8462;SDS011;4268;52.506;13.462;2024-03-23T02:19:35;9.67;;;5.23;;
8462;SDS011;4268;52.506;13.462;2024-03-23T02:22:00;7.53;;;4.60;;
8462;SDS011;4268;52.506;13.462;2024-03-23T02:24:26;9.30;;;5.27;;
8462;SDS011;4268;52.506;13.462;2024-03-23T02:26:51;10.20;;;5.80;;
8462;SDS011;4268;52.506;13.462;2024-03-23T02:29:17;10.63;;;5.50;;
8462;SDS011;4268;52.506;13.462;2024-03-23T02:31:44;12.50;;;5.77;;
8462;SDS011;4268;52.506;13.462;2024-03-23T02:34:10;11.83;;;4.77;;
8462;SDS011;4268;52.506;13.462;2024-03-23T02:36:35;12.57;;;5.83;;
8462;SDS011;4268;52.506;13.462;2024-03-23T02:39:01;11.20;;;4.80;;
8462;SDS011;4268;52.506;13.462;2024-03-23T02:41:26;11.83;;;4.77;;
8462;SDS011;4268;52.506;13.462;2024-03-23T02:43:52;10.90;;;5.13;;
8462;SDS011;4268;52.506;13.462;2024-03-23T02:46:17;10.73;;;5.33;;
8462;SDS011;4268;52.506;13.462;2024-03-23T02:48:43;10.13;;;5.10;;
8462;SDS011;4268;52.506;13.462;2024-03-23T02:51:09;11.07;;;5.00;;
8462;SDS011;4268;52.506;13.462;2024-03-23T02:53:34;10.93;;;5.27;;
8462;SDS011;4268;52.506;13.462;2024-03-23T02:56:00;9.83;;;5.10;;
8462;SDS011;4268;52.506;13.462;2024-03-23T02:58:26;10.60;;;4.80;;
8462;SDS011;4268;52.506;13.462;2024-03-23T03:00:51;10.10;;;5.00;;
8462;SDS011;4268;52.506;13.462;2024-03-23T03:03:17;9.17;;;5.13;;
8462;SDS011;4268;52.506;13.462;2024-03-23T03:05:42;12.13;;;5.40;;
8462;SDS011;4268;52.506;13.462;2024-03-23T03:08:08;12.27;;;5.90;;
8462;SDS011;4268;52.506;13.462;2024-03-23T03:10:33;11.00;;;5.10;;
8462;SDS011;4268;52.506;13.462;2024-03-23T03:13:01;11.20;;;5.10;;
8462;SDS011;4268;52.506;13.462;2024-03-23T03:15:27;10.93;;;5.53;;
8462;SDS011;4268;52.506;13.462;2024-03-23T03:17:52;10.63;;;5.77;;
8462;SDS011;4268;52.506;13.462;2024-03-23T03:20:18;11.87;;;5.10;;
8462;SDS011;4268;52.506;13.462;2024-03-23T03:22:43;12.27;;;5.37;;
8462;SDS011;4268;52.506;13.462;2024-03-23T03:25:09;11.90;;;5.87;;
8462;SDS011;4268;52.506;13.462;2024-03-23T03:27:35;10.63;;;5.67;;
8462;SDS011;4268;52.506;13.462;2024-03-23T03:30:00;9.67;;;6.90;;
8462;SDS011;4268;52.506;13.462;2024-03-23T03:32:28;9.63;;;5.47;;
8462;SDS011;4268;52.506;13.462;2024-03-23T03:34:54;15.30;;;6.50;;
8462;SDS011;4268;52.506;13.462;2024-03-23T03:37:19;13.23;;;6.37;;
8462;SDS011;4268;52.506;13.462;2024-03-23T03:39:45;12.93;;;6.33;;
8462;SDS011;4268;52.506;13.462;2024-03-23T03:42:11;10.67;;;5.67;;
8462;SDS011;4268;52.506;13.462;2024-03-23T03:44:36;13.30;;;6.70;;
8462;SDS011;4268;52.506;13.462;2024-03-23T03:47:02;12.07;;;6.60;;
8462;SDS011;4268;52.506;13.462;2024-03-23T03:49:27;11.90;;;6.00;;
8462;SDS011;4268;52.506;13.462;2024-03-23T03:51:53;10.40;;;5.53;;
8462;SDS011;4268;52.506;13.462;2024-03-23T03:54:18;9.00;;;5.20;;
8462;SDS011;4268;52.506;13.462;2024-03-23T03:56:44;9.90;;;5.43;;
8462;SDS011;4268;52.506;13.462;2024-03-23T03:59:09;10.23;;;5.17;;
8462;SDS011;4268;52.506;13.462;2024-03-23T04:01:35;9.57;;;5.20;;
8462;SDS011;4268;52.506;13.462;2024-03-23T04:04:01;9.57;;;4.90;;
8462;SDS011;4268;52.506;13.462;2024-03-23T04:06:26;9.57;;;4.83;;
8462;SDS011;4268;52.506;13.462;2024-03-23T04:08:52;8.93;;;5.30;;
8462;SDS011;4268;52.506;13.462;2024-03-23T04:11:17;10.73;;;8.20;;
8462;SDS011;4268;52.506;13.462;2024-03-23T04:13:43;9.00;;;5.07;;
8462;SDS011;4268;52.506;13.462;2024-03-23T04:16:08;7.53;;;4.70;;
8462;SDS011;4268;52.506;13.462;2024-03-23T04:18:34;5.80;;;4.47;;
8462;SDS011;4268;52.506;13.462;2024-03-23T04:21:00;7.33;;;6.20;;
8462;SDS011;4268;52.506;13.462;2024-03-23T04:23:26;6.00;;;4.37;;
8462;SDS011;4268;52.506;13.462;2024-03-23T04:25:51;6.67;;;4.27;;
8462;SDS011;4268;52.506;13.462;2024-03-23T04:28:18;5.23;;;3.80;;
8462;SDS011;4268;52.506;13.462;2024-03-23T04:30:44;5.80;;;3.97;;
8462;SDS011;4268;52.506;13.462;2024-03-23T04:33:09;6.40;;;4.30;;
8462;SDS011;4268;52.506;13.462;2024-03-23T04:35:35;9.13;;;4.10;;
8462;SDS011;4268;52.506;13.462;2024-03-23T04:38:02;5.23;;;3.73;;
8462;SDS011;4268;52.506;13.462;2024-03-23T04:40:27;8.67;;;4.20;;
8462;SDS011;4268;52.506;13.462;2024-03-23T04:42:53;5.37;;;3.67;;
8462;SDS011;4268;52.506;13.462;2024-03-23T04:45:18;7.57;;;4.10;;
8462;SDS011;4268;52.506;13.462;2024-03-23T04:47:44;6.33;;;4.20;;
8462;SDS011;4268;52.506;13.462;2024-03-23T04:50:09;6.70;;;4.10;;
8462;SDS011;4268;52.506;13.462;2024-03-23T04:52:37;5.17;;;3.57;;
8462;SDS011;4268;52.506;13.462;2024-03-23T04:55:03;8.37;;;3.83;;
8462;SDS011;4268;52.506;13.462;2024-03-23T04:57:29;5.87;;;3.70;;
8462;SDS011;4268;52.506;13.462;2024-03-23T04:59:54;4.20;;;3.50;;
8462;SDS011;4268;52.506;13.462;2024-03-23T05:02:20;5.23;;;4.67;;
8462;SDS011;4268;52.506;13.462;2024-03-23T05:04:45;5.83;;;3.60;;
8462;SDS011;4268;52.506;13.462;2024-03-23T05:07:11;6.87;;;4.10;;
8462;SDS011;4268;52.506;13.462;2024-03-23T05:09:36;5.27;;;3.63;;
8462;SDS011;4268;52.506;13.462;2024-03-23T05:12:02;5.10;;;3.80;;
8462;SDS011;4268;52.506;13.462;2024-03-23T05:14:28;6.00;;;3.40;;
8462;SDS011;4268;52.506;13.462;2024-03-23T05:16:53;3.63;;;3.30;;
8462;SDS011;4268;52.506;13.462;2024-03-23T05:19:19;5.30;;;3.30;;
8462;SDS011;4268;52.506;13.462;2024-03-23T05:21:44;5.17;;;3.57;;
8462;SDS011;4268;52.506;13.462;2024-03-23T05:24:10;4.53;;;3.90;;
8462;SDS011;4268;52.506;13.462;2024-03-23T05:26:37;6.47;;;3.80;;
8462;SDS011;4268;52.506;13.462;2024-03-23T05:29:02;3.80;;;3.37;;
8462;SDS011;4268;52.506;13.462;2024-03-23T05:31:28;3.87;;;3.47;;
8462;SDS011;4268;52.506;13.462;2024-03-23T05:33:55;4.90;;;3.77;;
8462;SDS011;4268;52.506;13.462;2024-03-23T05:36:20;5.47;;;3.63;;
8462;SDS011;4268;52.506;13.462;2024-03-23T05:38:47;7.93;;;4.00;;
8462;SDS011;4268;52.506;13.462;2024-03-23T05:41:13;4.37;;;3.63;;
8462;SDS011;4268;52.506;13.462;2024-03-23T05:43:38;5.63;;;4.07;;
8462;SDS011;4268;52.506;13.462;2024-03-23T05:46:04;4.17;;;3.63;;
8462;SDS011;4268;52.506;13.462;2024-03-23T05:48:30;5.83;;;3.73;;
8462;SDS011;4268;52.506;13.462;2024-03-23T05:50:56;5.80;;;3.83;;
8462;SDS011;4268;52.506;13.462;2024-03-23T05:53:22;5.80;;;3.90;;
8462;SDS011;4268;52.506;13.462;2024-03-23T05:55:48;5.37;;;4.07;;
8462;SDS011;4268;52.506;13.462;2024-03-23T05:58:15;4.80;;;3.60;;
8462;SDS011;4268;52.506;13.462;2024-03-23T06:00:41;4.00;;;3.60;;
8462;SDS011;4268;52.506;13.462;2024-03-23T06:03:07;6.73;;;4.00;;
8462;SDS011;4268;52.506;13.462;2024-03-23T06:05:33;7.23;;;4.07;;
8462;SDS011;4268;52.506;13.462;2024-03-23T06:07:59;5.57;;;4.03;;
8462;SDS011;4268;52.506;13.462;2024-03-23T06:10:25;5.20;;;4.17;;
8462;SDS011;4268;52.506;13.462;2024-03-23T06:12:50;6.23;;;4.43;;
8462;SDS011;4268;52.506;13.462;2024-03-23T06:15:17;4.63;;;3.67;;
8462;SDS011;4268;52.506;13.462;2024-03-23T06:17:43;4.67;;;3.90;;
8462;SDS011;4268;52.506;13.462;2024-03-23T06:20:09;6.20;;;4.07;;
8462;SDS011;4268;52.506;13.462;2024-03-23T06:22:35;6.40;;;3.90;;
8462;SDS011;4268;52.506;13.462;2024-03-23T06:25:01;6.00;;;4.03;;
8462;SDS011;4268;52.506;13.462;2024-03-23T06:27:26;6.67;;;4.40;;
8462;SDS011;4268;52.506;13.462;2024-03-23T06:29:52;9.10;;;4.20;;
8462;SDS011;4268;52.506;13.462;2024-03-23T06:32:18;6.17;;;4.20;;
8462;SDS011;4268;52.506;13.462;2024-03-23T06:34:43;6.47;;;4.57;;
8462;SDS011;4268;52.506;13.462;2024-03-23T06:37:09;6.33;;;4.20;;
8462;SDS011;4268;52.506;13.462;2024-03-23T06:39:36;5.03;;;3.90;;
8462;SDS011;4268;52.506;13.462;2024-03-23T06:42:02;7.17;;;4.13;;
8462;SDS011;4268;52.506;13.462;2024-03-23T06:44:28;6.27;;;4.30;;
8462;SDS011;4268;52.506;13.462;2024-03-23T06:46:54;6.53;;;4.00;;
8462;SDS011;4268;52.506;13.462;2024-03-23T06:49:20;8.20;;;7.47;;
8462;SDS011;4268;52.506;13.462;2024-03-23T06:51:45;6.57;;;4.40;;
8462;SDS011;4268;52.506;13.462;2024-03-23T06:54:11;5.33;;;3.90;;
8462;SDS011;4268;52.506;13.462;2024-03-23T06:56:37;4.93;;;4.17;;
8462;SDS011;4268;52.506;13.462;2024-03-23T06:59:02;5.63;;;4.33;;
8462;SDS011;4268;52.506;13.462;2024-03-23T07:01:28;5.67;;;3.90;;
8462;SDS011;4268;52.506;13.462;2024-03-23T07:03:54;4.60;;;3.40;;
8462;SDS011;4268;52.506;13.462;2024-03-23T07:06:19;4.50;;;3.60;;
8462;SDS011;4268;52.506;13.462;2024-03-23T07:08:45;4.97;;;3.60;;
8462;SDS011;4268;52.506;13.462;2024-03-23T07:11:10;5.20;;;3.77;;
8462;SDS011;4268;52.506;13.462;2024-03-23T07:13:36;7.90;;;4.20;;
8462;SDS011;4268;52.506;13.462;2024-03-23T07:16:01;5.80;;;3.60;;
8462;SDS011;4268;52.506;13.462;2024-03-23T07:18:27;4.93;;;3.47;;
8462;SDS011;4268;52.506;13.462;2024-03-23T07:20:54;4.77;;;3.30;;
8462;SDS011;4268;52.506;13.462;2024-03-23T07:23:21;5.07;;;3.60;;
8462;SDS011;4268;52.506;13.462;2024-03-23T07:26:00;5.50;;;3.70;;
8462;SDS011;4268;52.506;13.462;2024-03-23T07:28:27;3.77;;;3.20;;
8462;SDS011;4268;52.506;13.462;2024-03-23T07:31:01;5.10;;;3.53;;
8462;SDS011;4268;52.506;13.462;2024-03-23T07:33:31;5.77;;;3.80;;
8462;SDS011;4268;52.506;13.462;2024-03-23T07:35:57;5.10;;;3.70;;
8462;SDS011;4268;52.506;13.462;2024-03-23T07:38:25;6.03;;;3.87;;
8462;SDS011;4268;52.506;13.462;2024-03-23T07:40:51;5.27;;;3.53;;
8462;SDS011;4268;52.506;13.462;2024-03-23T07:43:21;5.63;;;3.60;;
8462;SDS011;4268;52.506;13.462;2024-03-23T07:45:53;4.70;;;3.90;;
8462;SDS011;4268;52.506;13.462;2024-03-23T07:48:18;6.20;;;3.90;;
8462;SDS011;4268;52.506;13.462;2024-03-23T07:50:47;3.73;;;3.30;;
8462;SDS011;4268;52.506;13.462;2024-03-23T07:53:22;6.63;;;3.80;;
8462;SDS011;4268;52.506;13.462;2024-03-23T07:55:57;5.73;;;3.80;;
8462;SDS011;4268;52.506;13.462;2024-03-23T07:58:24;5.57;;;3.60;;
8462;SDS011;4268;52.506;13.462;2024-03-23T08:00:50;4.53;;;3.73;;
8462;SDS011;4268;52.506;13.462;2024-03-23T08:03:15;6.10;;;3.50;;
8462;SDS011;4268;52.506;13.462;2024-03-23T08:05:41;5.17;;;3.33;;
8462;SDS011;4268;52.506;13.462;2024-03-23T08:08:06;3.70;;;3.03;;
8462;SDS011;4268;52.506;13.462;2024-03-23T08:10:32;4.50;;;3.33;;
8462;SDS011;4268;52.506;13.462;2024-03-23T08:12:57;4.03;;;3.23;;
8462;SDS011;4268;52.506;13.462;2024-03-23T08:15:23;3.93;;;3.23;;
8462;SDS011;4268;52.506;13.462;2024-03-23T08:17:49;5.10;;;3.30;;
8462;SDS011;4268;52.506;13.462;2024-03-23T08:20:15;4.93;;;3.23;;
8462;SDS011;4268;52.506;13.462;2024-03-23T08:22:40;4.27;;;3.50;;
8462;SDS011;4268;52.506;13.462;2024-03-23T08:25:06;4.73;;;3.40;;
8462;SDS011;4268;52.506;13.462;2024-03-23T08:27:31;4.90;;;3.60;;
8462;SDS011;4268;52.506;13.462;2024-03-23T08:29:58;4.90;;;3.80;;
8462;SDS011;4268;52.506;13.462;2024-03-23T08:32:23;4.00;;;3.60;;
8462;SDS011;4268;52.506;13.462;2024-03-23T08:34:49;4.00;;;3.40;;
8462;SDS011;4268;52.506;13.462;2024-03-23T08:37:14;5.20;;;3.83;;
8462;SDS011;4268;52.506;13.462;2024-03-23T08:39:40;3.50;;;3.20;;
8462;SDS011;4268;52.506;13.462;2024-03-23T08:42:08;4.40;;;3.50;;
8462;SDS011;4268;52.506;13.462;2024-03-23T08:44:33;3.47;;;3.17;;
8462;SDS011;4268;52.506;13.462;2024-03-23T08:46:59;3.97;;;3.13;;
8462;SDS011;4268;52.506;13.462;2024-03-23T08:49:26;3.30;;;3.00;;
8462;SDS011;4268;52.506;13.462;2024-03-23T08:51:51;4.80;;;3.80;;
8462;SDS011;4268;52.506;13.462;2024-03-23T08:54:17;5.57;;;3.33;;
8462;SDS011;4268;52.506;13.462;2024-03-23T08:56:45;3.90;;;3.30;;
8462;SDS011;4268;52.506;13.462;2024-03-23T08:59:10;4.47;;;3.70;;
8462;SDS011;4268;52.506;13.462;2024-03-23T09:01:36;8.17;;;4.80;;
8462;SDS011;4268;52.506;13.462;2024-03-23T09:04:02;6.37;;;4.03;;
8462;SDS011;4268;52.506;13.462;2024-03-23T09:06:27;5.93;;;4.00;;
8462;SDS011;4268;52.506;13.462;2024-03-23T09:08:53;4.10;;;3.50;;
8462;SDS011;4268;52.506;13.462;2024-03-23T09:11:18;4.93;;;3.77;;
8462;SDS011;4268;52.506;13.462;2024-03-23T09:13:44;3.90;;;3.50;;
8462;SDS011;4268;52.506;13.462;2024-03-23T09:16:09;5.20;;;3.37;;
8462;SDS011;4268;52.506;13.462;2024-03-23T09:18:35;4.23;;;3.30;;
8462;SDS011;4268;52.506;13.462;2024-03-23T09:21:02;5.00;;;3.47;;
8462;SDS011;4268;52.506;13.462;2024-03-23T09:23:28;4.80;;;3.53;;
8462;SDS011;4268;52.506;13.462;2024-03-23T09:25:54;5.73;;;3.47;;
8462;SDS011;4268;52.506;13.462;2024-03-23T09:28:19;4.20;;;3.80;;
8462;SDS011;4268;52.506;13.462;2024-03-23T09:30:45;5.53;;;3.60;;
8462;SDS011;4268;52.506;13.462;2024-03-23T09:33:11;4.23;;;3.30;;
8462;SDS011;4268;52.506;13.462;2024-03-23T09:35:39;3.90;;;3.50;;
8462;SDS011;4268;52.506;13.462;2024-03-23T09:38:06;3.87;;;3.20;;
8462;SDS011;4268;52.506;13.462;2024-03-23T09:40:34;3.70;;;3.23;;
8462;SDS011;4268;52.506;13.462;2024-03-23T09:43:10;4.10;;;3.53;;
8462;SDS011;4268;52.506;13.462;2024-03-23T09:45:38;3.40;;;3.10;;
8462;SDS011;4268;52.506;13.462;2024-03-23T09:48:05;5.27;;;3.47;;
8462;SDS011;4268;52.506;13.462;2024-03-23T09:50:34;3.77;;;3.40;;
8462;SDS011;4268;52.506;13.462;2024-03-23T09:53:00;4.53;;;3.27;;
8462;SDS011;4268;52.506;13.462;2024-03-23T09:55:26;3.97;;;3.30;;
8462;SDS011;4268;52.506;13.462;2024-03-23T09:57:52;5.87;;;3.80;;
8462;SDS011;4268;52.506;13.462;2024-03-23T10:00:17;4.90;;;3.33;;
8462;SDS011;4268;52.506;13.462;2024-03-23T10:02:43;6.33;;;3.87;;
8462;SDS011;4268;52.506;13.462;2024-03-23T10:05:19;5.87;;;3.33;;
8462;SDS011;4268;52.506;13.462;2024-03-23T10:07:46;6.47;;;3.43;;
8462;SDS011;4268;52.506;13.462;2024-03-23T10:10:12;5.13;;;3.33;;
8462;SDS011;4268;52.506;13.462;2024-03-23T10:12:40;6.27;;;3.60;;
8462;SDS011;4268;52.506;13.462;2024-03-23T10:15:21;4.50;;;3.20;;
8462;SDS011;4268;52.506;13.462;2024-03-23T10:17:48;6.20;;;3.63;;
8462;SDS011;4268;52.506;13.462;2024-03-23T10:20:20;4.70;;;3.50;;
8462;SDS011;4268;52.506;13.462;2024-03-23T10:22:47;4.60;;;3.40;;
8462;SDS011;4268;52.506;13.462;2024-03-23T10:25:14;3.73;;;3.03;;
8462;SDS011;4268;52.506;13.462;2024-03-23T10:27:40;5.33;;;3.10;;
8462;SDS011;4268;52.506;13.462;2024-03-23T10:32:41;7.23;;;3.37;;
8462;SDS011;4268;52.506;13.462;2024-03-23T10:35:13;3.80;;;3.03;;
8462;SDS011;4268;52.506;13.462;2024-03-23T10:37:49;3.67;;;3.00;;
8462;SDS011;4268;52.506;13.462;2024-03-23T10:40:16;3.60;;;3.13;;
8462;SDS011;4268;52.506;13.462;2024-03-23T10:42:41;4.30;;;3.47;;
8462;SDS011;4268;52.506;13.462;2024-03-23T10:45:07;6.80;;;3.53;;
8462;SDS011;4268;52.506;13.462;2024-03-23T10:47:37;4.67;;;3.50;;
8462;SDS011;4268;52.506;13.462;2024-03-23T10:50:03;3.87;;;3.30;;
8462;SDS011;4268;52.506;13.462;2024-03-23T10:52:30;4.13;;;3.20;;
8462;SDS011;4268;52.506;13.462;2024-03-23T10:54:57;5.60;;;3.30;;
8462;SDS011;4268;52.506;13.462;2024-03-23T10:57:26;5.47;;;3.87;;
8462;SDS011;4268;52.506;13.462;2024-03-23T11:00:05;4.10;;;3.57;;
8462;SDS011;4268;52.506;13.462;2024-03-23T11:02:31;5.17;;;3.30;;
8462;SDS011;4268;52.506;13.462;2024-03-23T11:04:57;5.40;;;3.20;;
8462;SDS011;4268;52.506;13.462;2024-03-23T11:09:51;6.53;;;3.30;;
8462;SDS011;4268;52.506;13.462;2024-03-23T11:15:34;5.10;;;3.50;;
8462;SDS011;4268;52.506;13.462;2024-03-23T11:17:37;5.20;;;3.40;;
8462;SDS011;4268;52.506;13.462;2024-03-23T11:20:05;5.17;;;3.73;;
8462;SDS011;4268;52.506;13.462;2024-03-23T11:25:24;4.97;;;3.37;;
8462;SDS011;4268;52.506;13.462;2024-03-23T11:27:49;4.83;;;3.60;;
8462;SDS011;4268;52.506;13.462;2024-03-23T11:30:17;4.07;;;3.10;;
8462;SDS011;4268;52.506;13.462;2024-03-23T11:32:44;4.47;;;3.20;;
8462;SDS011;4268;52.506;13.462;2024-03-23T11:35:10;4.33;;;3.40;;
8462;SDS011;4268;52.506;13.462;2024-03-23T11:38:00;5.37;;;3.57;;
8462;SDS011;4268;52.506;13.462;2024-03-23T11:40:33;3.77;;;3.43;;
8462;SDS011;4268;52.506;13.462;2024-03-23T11:43:07;6.07;;;3.87;;
8462;SDS011;4268;52.506;13.462;2024-03-23T11:45:44;4.83;;;4.00;;
8462;SDS011;4268;52.506;13.462;2024-03-23T11:48:14;6.53;;;4.10;;
8462;SDS011;4268;52.506;13.462;2024-03-23T11:50:43;3.97;;;3.40;;
8462;SDS011;4268;52.506;13.462;2024-03-23T11:53:14;4.20;;;3.40;;
8462;SDS011;4268;52.506;13.462;2024-03-23T11:58:07;5.90;;;4.00;;
8462;SDS011;4268;52.506;13.462;2024-03-23T12:00:33;6.50;;;4.30;;
8462;SDS011;4268;52.506;13.462;2024-03-23T12:03:00;6.30;;;4.90;;
8462;SDS011;4268;52.506;13.462;2024-03-23T12:05:29;6.03;;;4.80;;
8462;SDS011;4268;52.506;13.462;2024-03-23T12:08:14;4.50;;;3.80;;
8462;SDS011;4268;52.506;13.462;2024-03-23T12:10:44;4.00;;;3.53;;
8462;SDS011;4268;52.506;13.462;2024-03-23T12:13:14;6.03;;;3.90;;
8462;SDS011;4268;52.506;13.462;2024-03-23T12:15:47;6.97;;;4.00;;
8462;SDS011;4268;52.506;13.462;2024-03-23T12:18:15;4.83;;;3.63;;
8462;SDS011;4268;52.506;13.462;2024-03-23T12:20:41;4.50;;;3.20;;
8462;SDS011;4268;52.506;13.462;2024-03-23T12:23:10;6.23;;;3.80;;
8462;SDS011;4268;52.506;13.462;2024-03-23T12:25:36;4.90;;;3.50;;
8462;SDS011;4268;52.506;13.462;2024-03-23T12:28:03;5.17;;;3.47;;
8462;SDS011;4268;52.506;13.462;2024-03-23T12:30:31;4.73;;;3.63;;
8462;SDS011;4268;52.506;13.462;2024-03-23T12:33:06;3.70;;;3.30;;
8462;SDS011;4268;52.506;13.462;2024-03-23T12:35:31;5.83;;;4.00;;
8462;SDS011;4268;52.506;13.462;2024-03-23T12:37:57;6.00;;;3.70;;
8462;SDS011;4268;52.506;13.462;2024-03-23T12:40:23;5.90;;;4.30;;
8462;SDS011;4268;52.506;13.462;2024-03-23T12:42:49;5.43;;;3.67;;
8462;SDS011;4268;52.506;13.462;2024-03-23T12:45:15;5.83;;;3.83;;
8462;SDS011;4268;52.506;13.462;2024-03-23T12:47:40;5.20;;;3.47;;
8462;SDS011;4268;52.506;13.462;2024-03-23T12:50:06;7.20;;;3.80;;
8462;SDS011;4268;52.506;13.462;2024-03-23T12:52:35;4.70;;;3.30;;
8462;SDS011;4268;52.506;13.462;2024-03-23T12:55:01;5.23;;;3.53;;
8462;SDS011;4268;52.506;13.462;2024-03-23T12:57:26;4.70;;;3.10;;
8462;SDS011;4268;52.506;13.462;2024-03-23T12:59:52;4.27;;;3.10;;
8462;SDS011;4268;52.506;13.462;2024-03-23T13:02:21;5.00;;;3.60;;
8462;SDS011;4268;52.506;13.462;2024-03-23T13:04:49;4.20;;;3.30;;
8462;SDS011;4268;52.506;13.462;2024-03-23T13:07:15;6.67;;;3.00;;
8462;SDS011;4268;52.506;13.462;2024-03-23T13:09:41;3.37;;;2.90;;
8462;SDS011;4268;52.506;13.462;2024-03-23T13:12:07;2.93;;;2.60;;
8462;SDS011;4268;52.506;13.462;2024-03-23T13:14:32;3.53;;;3.20;;
8462;SDS011;4268;52.506;13.462;2024-03-23T13:16:58;4.90;;;4.50;;
8462;SDS011;4268;52.506;13.462;2024-03-23T13:19:24;3.57;;;3.13;;
8462;SDS011;4268;52.506;13.462;2024-03-23T13:21:52;6.03;;;3.30;;
8462;SDS011;4268;52.506;13.462;2024-03-23T13:24:25;3.50;;;3.20;;
8462;SDS011;4268;52.506;13.462;2024-03-23T13:26:52;4.00;;;3.63;;
8462;SDS011;4268;52.506;13.462;2024-03-23T13:29:18;5.80;;;5.40;;
8462;SDS011;4268;52.506;13.462;2024-03-23T13:31:44;4.17;;;3.30;;
8462;SDS011;4268;52.506;13.462;2024-03-23T13:34:10;4.00;;;3.60;;
8462;SDS011;4268;52.506;13.462;2024-03-23T13:36:35;4.67;;;3.50;;
8462;SDS011;4268;52.506;13.462;2024-03-23T13:39:02;5.27;;;3.60;;
8462;SDS011;4268;52.506;13.462;2024-03-23T13:41:36;5.23;;;3.77;;
8462;SDS011;4268;52.506;13.462;2024-03-23T13:44:02;6.17;;;3.23;;
8462;SDS011;4268;52.506;13.462;2024-03-23T13:46:28;4.87;;;3.57;;
8462;SDS011;4268;52.506;13.462;2024-03-23T13:48:54;5.87;;;5.27;;
8462;SDS011;4268;52.506;13.462;2024-03-23T13:51:22;5.57;;;3.50;;
8462;SDS011;4268;52.506;13.462;2024-03-23T13:53:50;5.87;;;3.60;;
8462;SDS011;4268;52.506;13.462;2024-03-23T13:56:15;4.77;;;3.63;;
8462;SDS011;4268;52.506;13.462;2024-03-23T13:58:41;8.60;;;3.50;;
8462;SDS011;4268;52.506;13.462;2024-03-23T14:01:10;5.40;;;3.40;;
8462;SDS011;4268;52.506;13.462;2024-03-23T14:03:36;4.47;;;3.60;;
8462;SDS011;4268;52.506;13.462;2024-03-23T14:06:01;5.07;;;3.50;;
8462;SDS011;4268;52.506;13.462;2024-03-23T14:08:28;6.80;;;4.60;;
8462;SDS011;4268;52.506;13.462;2024-03-23T14:10:53;6.13;;;3.93;;
8462;SDS011;4268;52.506;13.462;2024-03-23T14:13:19;4.87;;;3.87;;
8462;SDS011;4268;52.506;13.462;2024-03-23T14:15:45;7.00;;;4.03;;
8462;SDS011;4268;52.506;13.462;2024-03-23T14:18:10;4.80;;;3.53;;
8462;SDS011;4268;52.506;13.462;2024-03-23T14:20:36;6.23;;;4.13;;
8462;SDS011;4268;52.506;13.462;2024-03-23T14:23:01;5.53;;;4.00;;
8462;SDS011;4268;52.506;13.462;2024-03-23T14:25:27;5.70;;;3.80;;
8462;SDS011;4268;52.506;13.462;2024-03-23T14:27:54;6.77;;;4.00;;
8462;SDS011;4268;52.506;13.462;2024-03-23T14:30:19;4.93;;;3.80;;
8462;SDS011;4268;52.506;13.462;2024-03-23T14:32:45;6.87;;;4.00;;
8462;SDS011;4268;52.506;13.462;2024-03-23T14:35:10;5.73;;;4.23;;
8462;SDS011;4268;52.506;13.462;2024-03-23T14:37:37;4.93;;;3.80;;
8462;SDS011;4268;52.506;13.462;2024-03-23T14:40:03;4.90;;;3.60;;
8462;SDS011;4268;52.506;13.462;2024-03-23T14:42:29;5.70;;;3.63;;
8462;SDS011;4268;52.506;13.462;2024-03-23T14:44:56;5.67;;;5.07;;
8462;SDS011;4268;52.506;13.462;2024-03-23T14:47:21;6.47;;;3.37;;
8462;SDS011;4268;52.506;13.462;2024-03-23T14:49:47;5.90;;;3.97;;
8462;SDS011;4268;52.506;13.462;2024-03-23T14:52:13;4.53;;;3.17;;
8462;SDS011;4268;52.506;13.462;2024-03-23T14:54:39;4.27;;;3.50;;
8462;SDS011;4268;52.506;13.462;2024-03-23T14:57:04;3.63;;;3.00;;
8462;SDS011;4268;52.506;13.462;2024-03-23T14:59:31;4.33;;;3.17;;
8462;SDS011;4268;52.506;13.462;2024-03-23T15:01:57;5.80;;;3.23;;
8462;SDS011;4268;52.506;13.462;2024-03-23T15:04:23;5.57;;;3.70;;
8462;SDS011;4268;52.506;13.462;2024-03-23T15:06:48;3.00;;;2.80;;
8462;SDS011;4268;52.506;13.462;2024-03-23T15:09:15;3.63;;;3.13;;
8462;SDS011;4268;52.506;13.462;2024-03-23T15:11:40;4.37;;;3.37;;
8462;SDS011;4268;52.506;13.462;2024-03-23T15:14:06;5.70;;;5.13;;
8462;SDS011;4268;52.506;13.462;2024-03-23T15:16:32;3.83;;;3.47;;
8462;SDS011;4268;52.506;13.462;2024-03-23T15:18:58;5.50;;;5.00;;
8462;SDS011;4268;52.506;13.462;2024-03-23T15:21:23;3.30;;;3.00;;
8462;SDS011;4268;52.506;13.462;2024-03-23T15:23:49;4.83;;;4.33;;
8462;SDS011;4268;52.506;13.462;2024-03-23T15:26:14;3.60;;;3.27;;
8462;SDS011;4268;52.506;13.462;2024-03-23T15:28:41;4.07;;;3.37;;
8462;SDS011;4268;52.506;13.462;2024-03-23T15:31:29;4.70;;;3.63;;
8462;SDS011;4268;52.506;13.462;2024-03-23T15:33:56;4.20;;;3.90;;
8462;SDS011;4268;52.506;13.462;2024-03-23T15:36:21;4.53;;;4.07;;
8462;SDS011;4268;52.506;13.462;2024-03-23T15:38:47;4.33;;;3.90;;
8462;SDS011;4268;52.506;13.462;2024-03-23T15:41:14;4.80;;;4.00;;
8462;SDS011;4268;52.506;13.462;2024-03-23T15:43:39;6.07;;;5.60;;
8462;SDS011;4268;52.506;13.462;2024-03-23T15:46:06;4.43;;;3.90;;
8462;SDS011;4268;52.506;13.462;2024-03-23T15:48:33;4.63;;;4.17;;
8462;SDS011;4268;52.506;13.462;2024-03-23T15:51:00;4.30;;;3.70;;
8462;SDS011;4268;52.506;13.462;2024-03-23T15:53:29;4.07;;;3.60;;
8462;SDS011;4268;52.506;13.462;2024-03-23T15:55:55;6.77;;;3.60;;
8462;SDS011;4268;52.506;13.462;2024-03-23T15:58:21;7.33;;;6.73;;
8462;SDS011;4268;52.506;13.462;2024-03-23T16:01:00;3.77;;;3.33;;
8462;SDS011;4268;52.506;13.462;2024-03-23T16:03:31;6.53;;;6.03;;